Time;durP1;ratioP1;P1;durP2;ratioP2;P2;SDS_P1;SDS_P2;PMS_P1;PMS_P2;Temp;Humidity;BMP_temperature;BMP_pressure;BME280_temperature;BME280_humidity;BME280_pressure;Samples;Min_cycle;Max_cycle;Signal;HPM_P1;HPM_P2
2023/03/29 00:00:21;;;;;;;;;;;7.50;99.90;;;;;;2060163;28;19914;-73
2023/03/29 00:01:24;;;;;;;;;;;7.50;99.90;;;;;;2075488;28;20313;-73
2023/03/29 00:02:28;;;;;;;;;;;7.50;99.90;;;;;;2073444;28;19913;-73
2023/03/29 00:03:29;;;;;;;;;;;7.50;99.90;;;;;;2066638;28;20254;-73
2023/03/29 00:04:30;;;;;;;;;;;7.50;99.90;;;;;;2068333;28;19935;-73
2023/03/29 00:05:33;;;;;;;;;;;7.50;99.90;;;;;;2059211;28;20726;-73
2023/03/29 00:06:34;;;;;;;;;;;7.50;99.90;;;;;;2059353;28;19964;-73
2023/03/29 00:07:35;;;;;;;;;;;7.50;99.90;;;;;;2058107;28;19921;-73
2023/03/29 00:08:36;;;;;;;;;;;7.50;99.90;;;;;;2057779;28;19921;-73
2023/03/29 00:09:37;;;;;;;;;;;7.50;99.90;;;;;;2060880;28;19913;-73
2023/03/29 00:10:37;;;;;;;;;;;7.40;99.90;;;;;;2059158;28;19918;-73
2023/03/29 00:11:38;;;;;;;;;;;7.40;99.90;;;;;;2059261;28;19906;-72
2023/03/29 00:12:39;;;;;;;;;;;7.40;99.90;;;;;;2058659;28;19910;-72
2023/03/29 00:13:39;;;;;;;;;;;7.40;99.90;;;;;;2066987;28;19917;-73
2023/03/29 00:14:40;;;;;;;;;;;7.40;99.90;;;;;;2066943;28;19913;-73
2023/03/29 00:15:40;;;;;;;;;;;7.40;99.90;;;;;;2060423;28;19910;-73
2023/03/29 00:16:43;;;;;;;;;;;7.40;99.90;;;;;;2057068;28;19978;-73
2023/03/29 00:17:44;;;;;;;;;;;7.40;99.90;;;;;;2059883;28;19918;-73
2023/03/29 00:18:44;;;;;;;;;;;7.40;99.90;;;;;;2075179;28;19913;-72
2023/03/29 00:19:45;;;;;;;;;;;7.40;99.90;;;;;;2075943;28;19909;-73
2023/03/29 00:20:45;;;;;;;;;;;7.40;99.90;;;;;;2059690;28;19909;-72
2023/03/29 00:21:46;;;;;;;;;;;7.40;99.90;;;;;;2065976;28;20000;-73
2023/03/29 00:22:47;;;;;;;;;;;7.40;99.90;;;;;;2066638;28;19913;-72
2023/03/29 00:23:47;;;;;;;;;;;7.40;99.90;;;;;;2063164;28;19909;-73
2023/03/29 00:24:48;;;;;;;;;;;7.30;99.90;;;;;;2062527;28;19912;-73
2023/03/29 00:25:48;;;;;;;;;;;7.30;99.90;;;;;;2060044;28;20439;-73
2023/03/29 00:26:51;;;;;;;;;;;7.30;99.90;;;;;;2060025;28;20382;-73
2023/03/29 00:27:51;;;;;;;;;;;7.30;99.90;;;;;;2059786;28;20408;-72
2023/03/29 00:28:52;;;;;;;;;;;7.30;99.90;;;;;;2057189;28;19916;-73
2023/03/29 00:29:52;;;;;;;;;;;7.30;99.90;;;;;;2058831;28;20370;-73
2023/03/29 00:30:53;;;;;;;;;;;7.30;99.90;;;;;;2058597;28;20010;-73
2023/03/29 00:31:54;;;;;;;;;;;7.30;99.90;;;;;;2059223;28;20001;-72
2023/03/29 00:32:55;;;;;;;;;;;7.30;99.90;;;;;;2066772;28;19913;-73
2023/03/29 00:33:55;;;;;;;;;;;7.30;99.90;;;;;;2067003;28;19992;-72
2023/03/29 00:34:56;;;;;;;;;;;7.30;99.90;;;;;;2059410;28;20647;-73
2023/03/29 00:35:56;;;;;;;;;;;7.30;99.90;;;;;;2059689;28;19989;-73
2023/03/29 00:36:57;;;;;;;;;;;7.30;99.90;;;;;;2059224;28;20005;-73
2023/03/29 00:37:58;;;;;;;;;;;7.30;99.90;;;;;;2060620;28;19956;-73
2023/03/29 00:38:58;;;;;;;;;;;7.30;99.90;;;;;;2060705;28;20003;-73
2023/03/29 00:39:59;;;;;;;;;;;7.30;99.90;;;;;;2058897;28;19913;-73
2023/03/29 00:41:00;;;;;;;;;;;7.30;99.90;;;;;;2058494;28;19918;-73
2023/03/29 00:42:00;;;;;;;;;;;7.30;99.90;;;;;;2060933;28;19914;-73
2023/03/29 00:43:01;;;;;;;;;;;7.30;99.90;;;;;;2063076;28;19910;-73
2023/03/29 00:44:02;;;;;;;;;;;7.30;99.90;;;;;;2057917;28;19914;-73
2023/03/29 00:45:08;;;;;;;;;;;7.30;99.90;;;;;;2059546;28;19924;-73
2023/03/29 00:46:09;;;;;;;;;;;7.30;99.90;;;;;;2060094;28;20004;-72
2023/03/29 00:47:10;;;;;;;;;;;7.20;99.90;;;;;;2056138;28;20430;-72
2023/03/29 00:48:19;;;;;;;;;;;7.30;99.90;;;;;;2061421;28;19933;-73
2023/03/29 00:49:20;;;;;;;;;;;7.20;99.90;;;;;;2059962;28;20005;-73
2023/03/29 00:50:25;;;;;;;;;;;7.20;99.90;;;;;;2061537;28;19918;-73
2023/03/29 00:51:28;;;;;;;;;;;7.20;99.90;;;;;;2060512;28;19917;-73
2023/03/29 00:52:29;;;;;;;;;;;7.20;99.90;;;;;;2058013;28;19924;-73
2023/03/29 00:53:31;;;;;;;;;;;7.20;99.90;;;;;;2060286;28;20508;-72
2023/03/29 00:54:31;;;;;;;;;;;7.20;99.90;;;;;;2061591;28;19918;-72
2023/03/29 00:55:42;;;;;;;;;;;7.20;99.90;;;;;;2060751;28;19910;-73
2023/03/29 00:56:43;;;;;;;;;;;7.20;99.90;;;;;;2063990;28;20543;-73
2023/03/29 00:57:45;;;;;;;;;;;7.20;99.90;;;;;;2061154;28;19914;-72
2023/03/29 00:58:54;;;;;;;;;;;7.20;99.90;;;;;;2058204;28;20439;-73
2023/03/29 00:59:55;;;;;;;;;;;7.20;99.90;;;;;;2058649;28;20044;-73
2023/03/29 01:01:03;;;;;;;;;;;7.20;99.90;;;;;;2059031;28;19905;-74
2023/03/29 01:02:05;;;;;;;;;;;7.20;99.90;;;;;;2058693;28;19921;-73
2023/03/29 01:03:12;;;;;;;;;;;7.20;99.90;;;;;;2056213;28;19913;-73
2023/03/29 01:04:31;;;;;;;;;;;7.20;99.90;;;;;;2058434;28;19918;-73
2023/03/29 01:05:36;;;;;;;;;;;7.20;99.90;;;;;;2075175;28;20392;-74
2023/03/29 01:06:38;;;;;;;;;;;7.20;99.90;;;;;;2073268;28;19912;-73
2023/03/29 01:07:46;;;;;;;;;;;7.20;99.90;;;;;;2061458;28;20433;-73
2023/03/29 01:08:49;;;;;;;;;;;7.20;99.90;;;;;;2057839;28;19993;-73
2023/03/29 01:09:57;;;;;;;;;;;7.20;99.90;;;;;;2057705;28;19913;-73
2023/03/29 01:11:22;;;;;;;;;;;7.30;99.90;;;;;;2058837;28;19909;-73
2023/03/29 01:12:25;;;;;;;;;;;7.20;99.90;;;;;;2060185;28;19909;-73
2023/03/29 01:13:38;;;;;;;;;;;7.30;99.90;;;;;;2057855;28;19912;-73
2023/03/29 01:14:47;;;;;;;;;;;7.30;99.90;;;;;;2059879;28;20313;-74
2023/03/29 01:15:47;;;;;;;;;;;7.30;99.90;;;;;;2061408;28;19952;-73
2023/03/29 01:16:48;;;;;;;;;;;7.30;99.90;;;;;;2059050;28;20037;-73
2023/03/29 01:17:54;;;;;;;;;;;7.30;99.90;;;;;;2062246;28;19906;-73
2023/03/29 01:18:57;;;;;;;;;;;7.30;99.90;;;;;;2071080;28;19913;-73
2023/03/29 01:20:01;;;;;;;;;;;7.30;99.90;;;;;;2065820;28;20381;-73
2023/03/29 01:21:03;;;;;;;;;;;7.30;99.90;;;;;;2060176;28;19909;-73
2023/03/29 01:22:43;;;;;;;;;;;7.30;99.90;;;;;;2072803;28;19962;-73
2023/03/29 01:23:49;;;;;;;;;;;7.30;99.90;;;;;;2070864;28;19989;-73
2023/03/29 01:24:55;;;;;;;;;;;7.30;99.90;;;;;;2067229;28;19914;-73
2023/03/29 01:26:12;;;;;;;;;;;7.30;99.90;;;;;;2077169;28;19909;-73
2023/03/29 01:27:30;;;;;;;;;;;7.30;99.90;;;;;;2074640;28;19913;-73
2023/03/29 01:28:51;;;;;;;;;;;7.30;99.90;;;;;;2068719;28;19944;-73
2023/03/29 01:29:59;;;;;;;;;;;7.30;99.90;;;;;;2056612;28;19981;-73
2023/03/29 01:31:02;;;;;;;;;;;7.30;99.90;;;;;;2068002;28;19909;-73
2023/03/29 01:32:08;;;;;;;;;;;7.30;99.90;;;;;;2074174;28;19921;-73
2023/03/29 01:33:19;;;;;;;;;;;7.30;99.90;;;;;;2065351;28;19913;-73
2023/03/29 01:34:20;;;;;;;;;;;7.30;99.90;;;;;;2057692;28;19918;-73
2023/03/29 01:35:34;;;;;;;;;;;7.40;99.90;;;;;;2060665;28;20052;-73
2023/03/29 01:36:40;;;;;;;;;;;7.30;99.90;;;;;;2057568;28;19914;-73
2023/03/29 01:37:41;;;;;;;;;;;7.30;99.90;;;;;;2059782;28;19921;-73
2023/03/29 01:38:47;;;;;;;;;;;7.30;99.90;;;;;;2058776;28;19906;-73
2023/03/29 01:39:48;;;;;;;;;;;7.40;99.90;;;;;;2058978;28;19913;-73
2023/03/29 01:40:48;;;;;;;;;;;7.40;99.90;;;;;;2058464;28;19906;-73
2023/03/29 01:42:08;;;;;;;;;;;7.40;99.90;;;;;;2059985;28;20440;-73
2023/03/29 01:43:20;;;;;;;;;;;7.40;99.90;;;;;;2058164;28;19921;-73
2023/03/29 01:44:27;;;;;;;;;;;7.40;99.90;;;;;;2061731;28;20301;-73
2023/03/29 01:45:33;;;;;;;;;;;7.40;99.90;;;;;;2061133;28;19920;-73
2023/03/29 01:46:38;;;;;;;;;;;7.40;99.90;;;;;;2058547;28;19910;-73
2023/03/29 01:47:58;;;;;;;;;;;7.40;99.90;;;;;;2059884;28;20442;-73
2023/03/29 01:49:02;;;;;;;;;;;7.40;99.90;;;;;;2059020;28;19918;-73
2023/03/29 01:50:05;;;;;;;;;;;7.40;99.90;;;;;;2057007;28;20353;-73
2023/03/29 01:51:09;;;;;;;;;;;7.40;99.90;;;;;;2057395;28;20031;-74
2023/03/29 01:52:16;;;;;;;;;;;7.40;99.90;;;;;;2061553;28;20672;-73
2023/03/29 01:53:23;;;;;;;;;;;7.40;99.90;;;;;;2061352;28;19917;-73
2023/03/29 01:54:30;;;;;;;;;;;7.40;99.90;;;;;;2060544;28;20332;-73
2023/03/29 01:55:33;;;;;;;;;;;7.40;99.90;;;;;;2058013;28;19936;-73
2023/03/29 01:56:36;;;;;;;;;;;7.40;99.90;;;;;;2059348;28;19917;-73
2023/03/29 01:57:37;;;;;;;;;;;7.40;99.90;;;;;;2057612;28;19915;-73
2023/03/29 01:58:40;;;;;;;;;;;7.40;99.90;;;;;;2057400;28;19914;-74
2023/03/29 01:59:42;;;;;;;;;;;7.40;99.90;;;;;;2056491;28;19958;-73
2023/03/29 02:00:44;;;;;;;;;;;7.40;99.90;;;;;;2074014;28;19925;-73
2023/03/29 02:01:48;;;;;;;;;;;7.40;99.90;;;;;;2071142;28;19913;-73
2023/03/29 02:02:49;;;;;;;;;;;7.40;99.90;;;;;;2060312;28;19909;-73
2023/03/29 02:03:53;;;;;;;;;;;7.40;99.90;;;;;;2058828;28;19917;-73
2023/03/29 02:04:54;;;;;;;;;;;7.40;99.90;;;;;;2074209;28;20428;-73
2023/03/29 02:05:56;;;;;;;;;;;7.50;99.90;;;;;;2067545;28;20000;-73
2023/03/29 02:06:58;;;;;;;;;;;7.40;99.90;;;;;;2056278;28;19918;-73
2023/03/29 02:08:01;;;;;;;;;;;7.40;99.90;;;;;;2058680;28;19906;-73
2023/03/29 02:09:03;;;;;;;;;;;7.40;99.90;;;;;;2061499;28;20355;-73
2023/03/29 02:10:05;;;;;;;;;;;7.40;99.90;;;;;;2057719;28;19924;-73
2023/03/29 02:11:06;;;;;;;;;;;7.40;99.90;;;;;;2060149;28;20018;-74
2023/03/29 02:12:08;;;;;;;;;;;7.40;99.90;;;;;;2059327;28;20464;-73
2023/03/29 02:13:08;;;;;;;;;;;7.40;99.90;;;;;;2058181;28;19910;-73
2023/03/29 02:14:09;;;;;;;;;;;7.50;99.90;;;;;;2056401;28;19949;-73
2023/03/29 02:15:11;;;;;;;;;;;7.50;99.90;;;;;;2058301;28;19914;-73
2023/03/29 02:16:12;;;;;;;;;;;7.50;99.90;;;;;;2058265;28;19910;-73
2023/03/29 02:17:23;;;;;;;;;;;7.50;99.90;;;;;;2064875;28;19915;-74
2023/03/29 02:18:23;;;;;;;;;;;7.50;99.90;;;;;;2064426;28;20377;-73
2023/03/29 02:19:24;;;;;;;;;;;7.50;99.90;;;;;;2057357;28;20275;-73
2023/03/29 02:20:28;;;;;;;;;;;7.50;99.90;;;;;;2057298;28;19910;-73
2023/03/29 02:21:32;;;;;;;;;;;7.50;99.90;;;;;;2057697;28;19918;-73
2023/03/29 02:22:37;;;;;;;;;;;7.50;99.90;;;;;;2058258;28;19914;-73
2023/03/29 02:23:44;;;;;;;;;;;7.50;99.90;;;;;;2058498;28;19910;-73
2023/03/29 02:24:45;;;;;;;;;;;7.50;99.90;;;;;;2058003;28;19917;-73
2023/03/29 02:25:46;;;;;;;;;;;7.50;99.90;;;;;;2057795;28;19920;-73
2023/03/29 02:26:47;;;;;;;;;;;7.50;99.90;;;;;;2058131;28;20017;-73
2023/03/29 02:27:48;;;;;;;;;;;7.50;99.90;;;;;;2057193;28;19973;-73
2023/03/29 02:28:48;;;;;;;;;;;7.50;99.90;;;;;;2074164;28;19976;-73
2023/03/29 02:29:49;;;;;;;;;;;7.50;99.90;;;;;;2073196;28;19913;-73
2023/03/29 02:31:03;;;;;;;;;;;7.50;99.90;;;;;;2059163;28;19913;-73
2023/03/29 02:32:29;;;;;;;;;;;7.60;99.90;;;;;;2059507;28;20004;-73
2023/03/29 02:33:56;;;;;;;;;;;7.60;99.90;;;;;;2056567;28;20456;-73
2023/03/29 02:34:58;;;;;;;;;;;7.60;99.90;;;;;;2058956;28;19913;-73
2023/03/29 02:36:06;;;;;;;;;;;7.60;99.90;;;;;;2056289;28;19918;-73
2023/03/29 02:37:10;;;;;;;;;;;7.60;99.90;;;;;;2059489;28;20004;-73
2023/03/29 02:38:13;;;;;;;;;;;7.50;99.90;;;;;;2054181;28;19920;-73
2023/03/29 02:39:14;;;;;;;;;;;7.60;99.90;;;;;;2058380;28;20392;-73
2023/03/29 02:40:15;;;;;;;;;;;7.60;99.90;;;;;;2058129;28;19920;-73
2023/03/29 02:41:16;;;;;;;;;;;7.60;99.90;;;;;;2057626;28;19945;-73
2023/03/29 02:42:19;;;;;;;;;;;7.60;99.90;;;;;;2059491;28;19921;-73
2023/03/29 02:43:20;;;;;;;;;;;7.50;99.90;;;;;;2057820;28;20388;-73
2023/03/29 02:44:25;;;;;;;;;;;7.60;99.90;;;;;;2073433;28;19913;-73
2023/03/29 02:45:26;;;;;;;;;;;7.60;99.90;;;;;;2073457;28;20409;-73
2023/03/29 02:46:27;;;;;;;;;;;7.60;99.90;;;;;;2053794;28;19910;-74
2023/03/29 02:47:30;;;;;;;;;;;7.60;99.90;;;;;;2058111;28;19924;-74
2023/03/29 02:48:32;;;;;;;;;;;7.60;99.90;;;;;;2057961;28;20586;-73
2023/03/29 02:49:32;;;;;;;;;;;7.60;99.90;;;;;;2057491;28;19910;-73
2023/03/29 02:50:35;;;;;;;;;;;7.60;99.90;;;;;;2048036;28;19912;-73
2023/03/29 02:51:37;;;;;;;;;;;7.60;99.90;;;;;;2060813;28;20455;-73
2023/03/29 02:52:39;;;;;;;;;;;7.60;99.90;;;;;;2058313;28;19906;-73
2023/03/29 02:53:52;;;;;;;;;;;7.60;99.90;;;;;;2059758;28;20274;-73
2023/03/29 02:54:53;;;;;;;;;;;7.60;99.90;;;;;;2067116;28;19910;-73
2023/03/29 02:55:54;;;;;;;;;;;7.60;99.90;;;;;;2064341;28;20056;-73
2023/03/29 02:56:55;;;;;;;;;;;7.60;99.90;;;;;;2056901;28;19961;-73
2023/03/29 02:57:57;;;;;;;;;;;7.70;99.90;;;;;;2066617;28;19920;-73
2023/03/29 02:58:57;;;;;;;;;;;7.60;99.90;;;;;;2064296;28;19909;-73
2023/03/29 02:59:58;;;;;;;;;;;7.70;99.90;;;;;;2073791;28;19991;-73
2023/03/29 03:01:00;;;;;;;;;;;7.70;99.90;;;;;;2073127;28;19909;-73
2023/03/29 03:02:01;;;;;;;;;;;7.70;99.90;;;;;;2057293;28;19924;-73
2023/03/29 03:03:03;;;;;;;;;;;7.70;99.90;;;;;;2057386;28;20611;-73
2023/03/29 03:04:04;;;;;;;;;;;7.70;99.90;;;;;;2059220;28;19956;-73
2023/03/29 03:05:08;;;;;;;;;;;7.70;99.90;;;;;;2058672;28;19910;-73
2023/03/29 03:06:08;;;;;;;;;;;7.70;99.90;;;;;;2060112;28;19910;-73
2023/03/29 03:07:09;;;;;;;;;;;7.70;99.90;;;;;;2059615;28;19925;-73
2023/03/29 03:08:09;;;;;;;;;;;7.70;99.90;;;;;;2064384;28;19913;-73
2023/03/29 03:09:09;;;;;;;;;;;7.70;99.90;;;;;;2065546;28;19924;-73
2023/03/29 03:10:10;;;;;;;;;;;7.80;99.90;;;;;;2058150;28;20035;-73
2023/03/29 03:11:10;;;;;;;;;;;7.80;99.90;;;;;;2058751;28;19917;-73
2023/03/29 03:12:11;;;;;;;;;;;7.80;99.90;;;;;;2059052;28;19914;-73
2023/03/29 03:13:11;;;;;;;;;;;7.80;99.90;;;;;;2064790;28;20656;-73
2023/03/29 03:14:12;;;;;;;;;;;7.80;99.90;;;;;;2064285;28;19909;-73
2023/03/29 03:15:13;;;;;;;;;;;7.80;99.90;;;;;;2058559;28;19909;-73
2023/03/29 03:16:14;;;;;;;;;;;7.80;99.90;;;;;;2056838;28;19916;-73
2023/03/29 03:17:14;;;;;;;;;;;7.80;99.90;;;;;;2074300;28;20404;-73
2023/03/29 03:18:15;;;;;;;;;;;7.80;99.90;;;;;;2072216;28;19984;-73
2023/03/29 03:19:15;;;;;;;;;;;7.80;99.90;;;;;;2058996;28;19910;-73
2023/03/29 03:20:16;;;;;;;;;;;7.80;99.90;;;;;;2058149;28;19912;-73
2023/03/29 03:21:17;;;;;;;;;;;7.80;99.90;;;;;;2058649;28;19922;-73
2023/03/29 03:22:18;;;;;;;;;;;7.80;99.90;;;;;;2057121;28;20346;-73
2023/03/29 03:23:18;;;;;;;;;;;7.80;99.90;;;;;;2058753;28;20000;-73
2023/03/29 03:24:19;;;;;;;;;;;7.80;99.90;;;;;;2060451;28;19949;-73
2023/03/29 03:25:20;;;;;;;;;;;7.80;99.90;;;;;;2058255;28;19921;-73
2023/03/29 03:26:20;;;;;;;;;;;7.80;99.90;;;;;;2066889;28;19910;-73
2023/03/29 03:27:21;;;;;;;;;;;7.90;99.90;;;;;;2066196;28;19914;-73
2023/03/29 03:28:23;;;;;;;;;;;7.80;99.90;;;;;;2059883;28;20634;-73
2023/03/29 03:29:24;;;;;;;;;;;7.90;99.90;;;;;;2059765;28;19914;-73
2023/03/29 03:30:24;;;;;;;;;;;7.90;99.90;;;;;;2056236;28;19917;-73
2023/03/29 03:31:24;;;;;;;;;;;7.90;99.90;;;;;;2061714;28;19910;-74
2023/03/29 03:32:25;;;;;;;;;;;7.90;99.90;;;;;;2060280;28;19949;-73
2023/03/29 03:33:27;;;;;;;;;;;7.90;99.90;;;;;;2057578;28;19917;-73
2023/03/29 03:34:27;;;;;;;;;;;7.90;99.90;;;;;;2066494;28;20293;-73
2023/03/29 03:35:28;;;;;;;;;;;7.90;99.90;;;;;;2064351;28;20023;-74
2023/03/29 03:36:30;;;;;;;;;;;7.90;99.90;;;;;;2057622;28;19907;-73
2023/03/29 03:37:30;;;;;;;;;;;7.90;99.90;;;;;;2057810;28;19919;-73
2023/03/29 03:38:31;;;;;;;;;;;7.90;99.90;;;;;;2057823;28;19914;-73
2023/03/29 03:39:32;;;;;;;;;;;7.90;99.90;;;;;;2059186;28;20308;-73
2023/03/29 03:40:33;;;;;;;;;;;8.00;99.90;;;;;;2060526;28;20362;-73
2023/03/29 03:41:33;;;;;;;;;;;7.90;99.90;;;;;;2059198;28;19949;-73
2023/03/29 03:42:34;;;;;;;;;;;8.00;99.90;;;;;;2060037;28;19965;-73
2023/03/29 03:43:34;;;;;;;;;;;8.00;99.90;;;;;;2060897;28;19921;-73
2023/03/29 03:44:35;;;;;;;;;;;8.00;99.90;;;;;;2060638;28;19914;-73
2023/03/29 03:45:36;;;;;;;;;;;8.00;99.90;;;;;;2059740;28;19918;-74
2023/03/29 03:46:37;;;;;;;;;;;8.00;99.90;;;;;;2059465;28;20305;-73
2023/03/29 03:47:37;;;;;;;;;;;8.00;99.90;;;;;;2060270;28;19913;-73
2023/03/29 03:48:37;;;;;;;;;;;8.00;99.90;;;;;;2059576;28;19910;-73
2023/03/29 03:49:38;;;;;;;;;;;8.00;99.90;;;;;;2060883;28;19953;-73
2023/03/29 03:50:39;;;;;;;;;;;8.00;99.90;;;;;;2058757;28;20394;-73
2023/03/29 03:51:41;;;;;;;;;;;8.00;99.90;;;;;;2060363;28;19922;-73
2023/03/29 03:52:41;;;;;;;;;;;8.00;99.90;;;;;;2062263;28;19910;-73
2023/03/29 03:53:43;;;;;;;;;;;8.00;99.90;;;;;;2059372;28;19933;-73
2023/03/29 03:54:45;;;;;;;;;;;8.00;99.90;;;;;;2059047;28;19917;-73
2023/03/29 03:55:49;;;;;;;;;;;8.00;99.90;;;;;;2059477;28;20005;-73
2023/03/29 03:56:49;;;;;;;;;;;8.00;99.90;;;;;;2058334;28;19968;-73
2023/03/29 03:57:50;;;;;;;;;;;8.00;99.90;;;;;;2060038;28;20052;-74
2023/03/29 03:58:51;;;;;;;;;;;8.00;99.90;;;;;;2060473;28;19985;-73
2023/03/29 03:59:51;;;;;;;;;;;8.00;99.90;;;;;;2057401;28;20407;-73
2023/03/29 04:00:53;;;;;;;;;;;8.00;99.90;;;;;;2066956;28;20021;-73
2023/03/29 04:01:54;;;;;;;;;;;8.10;99.90;;;;;;2066226;28;19921;-73
2023/03/29 04:02:55;;;;;;;;;;;8.00;99.90;;;;;;2065407;28;19917;-73
2023/03/29 04:03:55;;;;;;;;;;;8.10;99.90;;;;;;2069089;28;19961;-73
2023/03/29 04:04:55;;;;;;;;;;;8.00;99.90;;;;;;2060561;28;19913;-73
2023/03/29 04:05:58;;;;;;;;;;;8.10;99.90;;;;;;2061119;28;20485;-73
2023/03/29 04:07:01;;;;;;;;;;;8.10;99.90;;;;;;2061047;28;19925;-73
2023/03/29 04:08:02;;;;;;;;;;;8.10;99.90;;;;;;2060207;28;19910;-74
2023/03/29 04:09:03;;;;;;;;;;;8.10;99.90;;;;;;2057261;28;19928;-73
2023/03/29 04:10:05;;;;;;;;;;;8.10;99.90;;;;;;2057024;28;19961;-73
2023/03/29 04:11:06;;;;;;;;;;;8.10;99.90;;;;;;2058113;28;19910;-73
2023/03/29 04:12:07;;;;;;;;;;;8.10;99.90;;;;;;2060586;28;19914;-74
2023/03/29 04:13:08;;;;;;;;;;;8.10;99.90;;;;;;2060537;28;19956;-74
2023/03/29 04:14:09;;;;;;;;;;;8.10;99.90;;;;;;2059693;28;19910;-73
2023/03/29 04:15:10;;;;;;;;;;;8.10;99.90;;;;;;2060402;28;19985;-73
2023/03/29 04:16:11;;;;;;;;;;;8.10;99.90;;;;;;2057909;28;19910;-73
2023/03/29 04:17:12;;;;;;;;;;;8.10;99.90;;;;;;2060792;28;19957;-73
2023/03/29 04:18:12;;;;;;;;;;;8.10;99.90;;;;;;2058961;28;20362;-73
2023/03/29 04:19:13;;;;;;;;;;;8.10;99.90;;;;;;2059987;28;19921;-73
2023/03/29 04:20:13;;;;;;;;;;;8.10;99.90;;;;;;2059537;28;20321;-73
2023/03/29 04:21:14;;;;;;;;;;;8.10;99.90;;;;;;2059927;28;19916;-73
2023/03/29 04:22:15;;;;;;;;;;;8.10;99.90;;;;;;2059192;28;20648;-73
2023/03/29 04:23:15;;;;;;;;;;;8.10;99.90;;;;;;2059119;28;19914;-73
2023/03/29 04:24:16;;;;;;;;;;;8.10;99.90;;;;;;2062778;28;19956;-73
2023/03/29 04:25:16;;;;;;;;;;;8.10;99.90;;;;;;2058575;28;19914;-73
2023/03/29 04:26:17;;;;;;;;;;;8.10;99.90;;;;;;2059333;28;20268;-73
2023/03/29 04:27:17;;;;;;;;;;;8.10;99.90;;;;;;2059243;28;19964;-73
2023/03/29 04:28:18;;;;;;;;;;;8.10;99.90;;;;;;2058482;28;20012;-73
2023/03/29 04:29:18;;;;;;;;;;;8.10;99.90;;;;;;2057727;28;20309;-73
2023/03/29 04:30:19;;;;;;;;;;;8.10;99.90;;;;;;2073510;28;19913;-73
2023/03/29 04:31:19;;;;;;;;;;;8.10;99.90;;;;;;2074775;28;20799;-73
2023/03/29 04:32:20;;;;;;;;;;;8.10;99.90;;;;;;2060424;28;20346;-73
2023/03/29 04:33:20;;;;;;;;;;;8.10;99.90;;;;;;2058855;28;19932;-73
2023/03/29 04:34:21;;;;;;;;;;;8.10;99.90;;;;;;2061594;28;19914;-73
2023/03/29 04:35:21;;;;;;;;;;;8.10;99.90;;;;;;2054032;28;19921;-73
2023/03/29 04:36:22;;;;;;;;;;;8.10;99.90;;;;;;2063599;28;19953;-73
2023/03/29 04:37:22;;;;;;;;;;;8.10;99.90;;;;;;2059254;28;19931;-73
2023/03/29 04:38:23;;;;;;;;;;;8.10;99.90;;;;;;2060207;28;20045;-73
2023/03/29 04:39:30;;;;;;;;;;;8.10;99.90;;;;;;2058699;28;19906;-73
2023/03/29 04:40:32;;;;;;;;;;;8.10;99.90;;;;;;2060014;28;19918;-73
2023/03/29 04:41:33;;;;;;;;;;;8.10;99.90;;;;;;2061383;28;20948;-73
2023/03/29 04:42:34;;;;;;;;;;;8.10;99.90;;;;;;2059446;28;20285;-73
2023/03/29 04:43:35;;;;;;;;;;;8.10;99.90;;;;;;2057733;28;19931;-73
2023/03/29 04:44:35;;;;;;;;;;;8.10;99.90;;;;;;2060967;28;20369;-73
2023/03/29 04:45:36;;;;;;;;;;;8.10;99.90;;;;;;2058186;28;19910;-73
2023/03/29 04:46:38;;;;;;;;;;;8.10;99.90;;;;;;2065508;28;19944;-73
2023/03/29 04:47:40;;;;;;;;;;;8.10;99.90;;;;;;2063898;28;19913;-73
2023/03/29 04:48:41;;;;;;;;;;;8.10;99.90;;;;;;2075250;28;19932;-73
2023/03/29 04:49:41;;;;;;;;;;;8.10;99.90;;;;;;2073835;28;19920;-73
2023/03/29 04:50:44;;;;;;;;;;;8.10;99.90;;;;;;2058562;28;19914;-73
2023/03/29 04:51:45;;;;;;;;;;;8.10;99.90;;;;;;2059591;28;20388;-73
2023/03/29 04:52:45;;;;;;;;;;;8.20;99.90;;;;;;2058160;28;20393;-74
2023/03/29 04:53:47;;;;;;;;;;;8.10;99.90;;;;;;2059618;28;19910;-73
2023/03/29 04:54:47;;;;;;;;;;;8.10;99.90;;;;;;2057962;28;20024;-73
2023/03/29 04:55:48;;;;;;;;;;;8.20;99.90;;;;;;2058906;28;19910;-73
2023/03/29 04:56:50;;;;;;;;;;;8.20;99.90;;;;;;2060536;28;20361;-73
2023/03/29 04:57:52;;;;;;;;;;;8.20;99.90;;;;;;2059556;28;19920;-73
2023/03/29 04:58:52;;;;;;;;;;;8.20;99.90;;;;;;2065894;28;19910;-73
2023/03/29 04:59:53;;;;;;;;;;;8.20;99.90;;;;;;2058672;28;20382;-73
2023/03/29 05:00:54;;;;;;;;;;;8.20;99.90;;;;;;2060592;28;19913;-73
2023/03/29 05:01:55;;;;;;;;;;;8.20;99.90;;;;;;2059843;28;19917;-73
2023/03/29 05:02:56;;;;;;;;;;;8.20;99.90;;;;;;2058999;28;20009;-73
2023/03/29 05:03:57;;;;;;;;;;;8.20;99.90;;;;;;2054208;28;20321;-73
2023/03/29 05:04:57;;;;;;;;;;;8.20;99.90;;;;;;2059775;28;19909;-73
2023/03/29 05:06:05;;;;;;;;;;;8.10;99.90;;;;;;2059104;28;20052;-73
2023/03/29 05:07:05;;;;;;;;;;;8.20;99.90;;;;;;2061318;28;19981;-73
2023/03/29 05:08:08;;;;;;;;;;;8.10;99.90;;;;;;2060259;28;19909;-73
2023/03/29 05:09:09;;;;;;;;;;;8.10;99.90;;;;;;2062478;28;20705;-73
2023/03/29 05:10:10;;;;;;;;;;;8.10;99.90;;;;;;2062753;28;19924;-73
2023/03/29 05:11:12;;;;;;;;;;;8.10;99.90;;;;;;2058227;28;19968;-73
2023/03/29 05:12:12;;;;;;;;;;;8.10;99.90;;;;;;2058233;28;19910;-73
2023/03/29 05:13:13;;;;;;;;;;;8.10;99.90;;;;;;2057556;28;19914;-73
2023/03/29 05:14:14;;;;;;;;;;;8.10;99.90;;;;;;2057411;28;20717;-73
2023/03/29 05:15:14;;;;;;;;;;;8.10;99.90;;;;;;2056842;28;20012;-73
2023/03/29 05:16:15;;;;;;;;;;;8.10;99.90;;;;;;2058634;28;20378;-73
2023/03/29 05:17:15;;;;;;;;;;;8.10;99.90;;;;;;2059122;28;19917;-73
2023/03/29 05:18:16;;;;;;;;;;;8.10;99.90;;;;;;2059521;28;19956;-73
2023/03/29 05:19:20;;;;;;;;;;;8.10;99.90;;;;;;2059694;28;19999;-73
2023/03/29 05:20:21;;;;;;;;;;;8.10;99.90;;;;;;2057135;28;19948;-73
2023/03/29 05:21:22;;;;;;;;;;;8.10;99.90;;;;;;2059010;28;20000;-73
2023/03/29 05:22:23;;;;;;;;;;;8.10;99.90;;;;;;2062388;28;19910;-73
2023/03/29 05:23:24;;;;;;;;;;;8.10;99.90;;;;;;2062057;28;19937;-73
2023/03/29 05:24:25;;;;;;;;;;;8.10;99.90;;;;;;2064935;28;19914;-73
2023/03/29 05:25:25;;;;;;;;;;;8.10;99.90;;;;;;2062516;28;19920;-73
2023/03/29 05:26:26;;;;;;;;;;;8.20;99.90;;;;;;2057783;28;19920;-73
2023/03/29 05:27:27;;;;;;;;;;;8.20;99.90;;;;;;2057810;28;19968;-73
2023/03/29 05:28:27;;;;;;;;;;;8.20;99.90;;;;;;2059031;28;19928;-73
2023/03/29 05:29:28;;;;;;;;;;;8.20;99.90;;;;;;2058199;28;19913;-73
2023/03/29 05:30:28;;;;;;;;;;;8.20;99.90;;;;;;2058681;28;19910;-73
2023/03/29 05:31:28;;;;;;;;;;;8.20;99.90;;;;;;2059986;28;19910;-73
2023/03/29 05:32:29;;;;;;;;;;;8.20;99.90;;;;;;2060753;28;19914;-73
2023/03/29 05:33:29;;;;;;;;;;;8.20;99.90;;;;;;2059229;28;19973;-73
2023/03/29 05:34:30;;;;;;;;;;;8.20;99.90;;;;;;2057892;28;19918;-73
2023/03/29 05:35:31;;;;;;;;;;;8.20;99.90;;;;;;2058823;28;20014;-73
2023/03/29 05:36:32;;;;;;;;;;;8.20;99.90;;;;;;2058146;28;19917;-73
2023/03/29 05:37:33;;;;;;;;;;;8.20;99.90;;;;;;2059133;28;19910;-73
2023/03/29 05:38:33;;;;;;;;;;;8.20;99.90;;;;;;2058644;28;19971;-73
2023/03/29 05:39:36;;;;;;;;;;;8.20;99.90;;;;;;2059691;28;19909;-73
2023/03/29 05:40:36;;;;;;;;;;;8.10;99.90;;;;;;2059672;28;19913;-73
2023/03/29 05:41:37;;;;;;;;;;;8.20;99.90;;;;;;2058722;28;20366;-74
2023/03/29 05:42:38;;;;;;;;;;;8.20;99.90;;;;;;2058783;28;19916;-73
2023/03/29 05:43:38;;;;;;;;;;;8.20;99.90;;;;;;2057700;28;19914;-73
2023/03/29 05:44:39;;;;;;;;;;;8.20;99.90;;;;;;2059498;28;19992;-73
2023/03/29 05:45:40;;;;;;;;;;;8.20;99.90;;;;;;2059149;28;19906;-73
2023/03/29 05:46:40;;;;;;;;;;;8.20;99.90;;;;;;2058217;28;19914;-73
2023/03/29 05:47:41;;;;;;;;;;;8.20;99.90;;;;;;2059447;28;20401;-73
2023/03/29 05:48:41;;;;;;;;;;;8.20;99.90;;;;;;2058017;28;20400;-73
2023/03/29 05:49:42;;;;;;;;;;;8.20;99.90;;;;;;2059403;28;19996;-73
2023/03/29 05:50:45;;;;;;;;;;;8.20;99.90;;;;;;2056708;28;19968;-73
2023/03/29 05:51:46;;;;;;;;;;;8.20;99.90;;;;;;2064650;28;19919;-73
2023/03/29 05:52:46;;;;;;;;;;;8.20;99.90;;;;;;2067159;28;19914;-73
2023/03/29 05:53:47;;;;;;;;;;;8.20;99.90;;;;;;2060098;28;20275;-73
2023/03/29 05:54:47;;;;;;;;;;;8.20;99.90;;;;;;2059244;28;19921;-73
2023/03/29 05:55:48;;;;;;;;;;;8.20;99.90;;;;;;2060714;28;20475;-73
2023/03/29 05:56:48;;;;;;;;;;;8.20;99.90;;;;;;2059175;28;19910;-73
2023/03/29 05:57:49;;;;;;;;;;;8.20;99.90;;;;;;2061157;28;19917;-73
2023/03/29 05:58:52;;;;;;;;;;;8.30;99.90;;;;;;2062090;28;19910;-73
2023/03/29 05:59:53;;;;;;;;;;;8.30;99.90;;;;;;2058201;28;20358;-73
2023/03/29 06:00:54;;;;;;;;;;;8.30;99.90;;;;;;2058158;28;19910;-73
2023/03/29 06:01:54;;;;;;;;;;;8.30;99.90;;;;;;2059408;28;19917;-73
2023/03/29 06:02:55;;;;;;;;;;;8.30;99.90;;;;;;2059016;28;19972;-73
2023/03/29 06:03:56;;;;;;;;;;;8.30;99.90;;;;;;2061053;28;19910;-73
2023/03/29 06:04:57;;;;;;;;;;;8.30;99.90;;;;;;2059563;28;19913;-73
2023/03/29 06:06:02;;;;;;;;;;;8.30;99.90;;;;;;2057787;28;20000;-73
2023/03/29 06:07:04;;;;;;;;;;;8.40;99.90;;;;;;2059262;28;19917;-73
2023/03/29 06:08:05;;;;;;;;;;;8.40;99.90;;;;;;2059948;28;20384;-73
2023/03/29 06:09:06;;;;;;;;;;;8.40;99.90;;;;;;2057644;28;19964;-73